createdAt,value
2022-08-03T00:01:43.689Z,17.80
2022-08-03T00:04:12.747Z,17.20
2022-08-03T00:06:40.740Z,17.20
2022-08-03T00:09:08.986Z,17.10
2022-08-03T00:11:37.417Z,17.10
2022-08-03T00:14:06.178Z,17.10
2022-08-03T00:16:35.704Z,17.00
2022-08-03T00:19:04.218Z,16.90
2022-08-03T00:21:32.169Z,17.40
2022-08-03T00:24:00.216Z,16.90
2022-08-03T00:26:28.224Z,17.00
2022-08-03T00:28:56.214Z,16.90
2022-08-03T00:31:39.933Z,16.90
2022-08-03T00:34:13.554Z,17.20
2022-08-03T00:36:41.662Z,16.90
2022-08-03T00:39:10.121Z,17.00
2022-08-03T00:41:38.122Z,17.00
2022-08-03T00:44:06.302Z,17.00
2022-08-03T00:46:34.311Z,17.00
2022-08-03T00:49:03.240Z,17.00
2022-08-03T00:51:34.945Z,16.90
2022-08-03T00:54:02.932Z,16.80
2022-08-03T00:56:30.956Z,16.90
2022-08-03T00:58:59.986Z,16.80
2022-08-03T01:01:32.171Z,16.80
2022-08-03T01:04:01.127Z,16.80
2022-08-03T01:06:42.297Z,16.80
2022-08-03T01:09:17.944Z,16.90
2022-08-03T01:12:01.026Z,17.30
2022-08-03T01:14:35.416Z,16.80
2022-08-03T01:17:11.720Z,16.90
2022-08-03T01:19:54.938Z,16.90
2022-08-03T01:22:45.927Z,16.80
2022-08-03T01:25:25.728Z,16.70
2022-08-03T01:28:04.076Z,16.60
2022-08-03T01:30:38.045Z,17.00
2022-08-03T01:33:11.417Z,16.50
2022-08-03T01:35:45.908Z,16.40
2022-08-03T01:38:16.825Z,16.70
2022-08-03T01:40:48.043Z,16.40
2022-08-03T01:44:26.663Z,16.90
2022-08-03T01:46:09.814Z,16.40
2022-08-03T01:48:40.744Z,16.40
2022-08-03T01:51:10.015Z,16.80
2022-08-03T01:53:39.160Z,16.60
2022-08-03T01:56:08.473Z,16.40
2022-08-03T01:58:38.182Z,16.40
2022-08-03T02:01:09.721Z,16.50
2022-08-03T02:04:00.005Z,16.40
2022-08-03T02:07:00.281Z,16.30
2022-08-03T02:09:22.195Z,16.40
2022-08-03T02:11:52.257Z,16.40
2022-08-03T02:14:22.368Z,16.60
2022-08-03T02:16:52.225Z,16.20
2022-08-03T02:19:20.662Z,16.20
2022-08-03T02:21:57.172Z,16.20
2022-08-03T02:24:30.175Z,16.10
2022-08-03T02:26:59.721Z,16.20
2022-08-03T02:29:39.946Z,16.30
2022-08-03T02:32:13.608Z,16.20
2022-08-03T02:34:43.380Z,16.00
2022-08-03T02:37:13.136Z,16.10
2022-08-03T02:39:43.329Z,16.90
2022-08-03T02:42:14.962Z,16.10
2022-08-03T02:44:48.388Z,16.10
2022-08-03T02:47:21.879Z,16.10
2022-08-03T02:49:52.399Z,16.10
2022-08-03T02:52:23.223Z,16.30
2022-08-03T02:54:55.947Z,16.10
2022-08-03T02:57:25.927Z,16.10
2022-08-03T02:59:55.175Z,16.10
2022-08-03T03:02:26.024Z,16.10
2022-08-03T03:05:53.294Z,15.90
2022-08-03T03:07:52.007Z,16.30
2022-08-03T03:10:21.673Z,15.90
2022-08-03T03:12:51.393Z,15.80
2022-08-03T03:15:19.928Z,15.80
2022-08-03T03:17:50.963Z,15.80
2022-08-03T03:20:29.055Z,15.90
2022-08-03T03:23:00.742Z,15.90
2022-08-03T03:25:29.873Z,16.00
2022-08-03T03:27:58.294Z,15.90
2022-08-03T03:30:27.675Z,16.00
2022-08-03T03:32:58.385Z,15.90
2022-08-03T03:35:27.922Z,15.80
2022-08-03T03:37:56.484Z,15.80
2022-08-03T03:40:24.789Z,15.70
2022-08-03T03:42:52.947Z,15.70
2022-08-03T03:45:21.764Z,15.60
2022-08-03T03:47:50.396Z,15.60
2022-08-03T03:50:20.509Z,15.60
2022-08-03T03:52:48.718Z,15.60
2022-08-03T03:55:19.858Z,16.00
2022-08-03T03:57:47.950Z,15.50
2022-08-03T04:00:17.860Z,15.80
2022-08-03T04:02:45.954Z,15.60
2022-08-03T04:05:31.668Z,15.60
2022-08-03T04:08:19.510Z,16.90
2022-08-03T04:11:01.273Z,15.80
2022-08-03T04:13:34.255Z,15.80
2022-08-03T04:16:02.976Z,15.80
2022-08-03T04:18:33.675Z,15.70
2022-08-03T04:21:04.657Z,15.70
2022-08-03T04:23:36.708Z,15.70
2022-08-03T04:26:06.462Z,15.70
2022-08-03T04:28:36.752Z,15.80
2022-08-03T04:31:05.902Z,15.80
2022-08-03T04:33:35.540Z,15.90
2022-08-03T04:36:07.946Z,15.90
2022-08-03T04:38:40.139Z,16.00
2022-08-03T04:41:09.876Z,16.10
2022-08-03T04:43:40.718Z,16.10
2022-08-03T04:46:10.432Z,16.20
2022-08-03T04:48:40.472Z,16.40
2022-08-03T04:51:12.938Z,16.30
2022-08-03T04:53:43.685Z,16.30
2022-08-03T04:56:11.823Z,16.60
2022-08-03T04:58:40.141Z,16.70
2022-08-03T05:01:08.651Z,16.80
2022-08-03T05:03:36.691Z,16.90
2022-08-03T05:06:11.441Z,16.90
2022-08-03T05:08:46.171Z,16.90
2022-08-03T05:11:16.658Z,17.00
2022-08-03T05:13:45.113Z,17.10
2022-08-03T05:16:14.254Z,17.20
2022-08-03T05:18:42.741Z,17.30
2022-08-03T05:21:10.785Z,17.40
2022-08-03T05:23:38.777Z,17.50
2022-08-03T05:26:06.735Z,17.50
2022-08-03T05:28:36.080Z,17.60
2022-08-03T05:31:04.180Z,17.60
2022-08-03T05:33:32.339Z,17.70
2022-08-03T05:36:04.175Z,17.80
2022-08-03T05:38:34.399Z,17.90
2022-08-03T05:41:20.357Z,17.90
2022-08-03T05:43:53.754Z,18.10
2022-08-03T05:46:23.016Z,18.10
2022-08-03T05:48:51.402Z,18.60
2022-08-03T05:51:19.458Z,18.70
2022-08-03T05:53:47.740Z,18.50
2022-08-03T05:56:16.795Z,18.70
2022-08-03T05:58:46.638Z,18.70
2022-08-03T06:01:16.340Z,18.80
2022-08-03T06:03:44.461Z,19.10
2022-08-03T06:06:12.875Z,18.90
2022-08-03T06:08:41.497Z,18.80
2022-08-03T06:11:09.749Z,19.10
2022-08-03T06:13:38.067Z,19.20
2022-08-03T06:16:06.845Z,19.30
2022-08-03T06:18:36.783Z,19.40
2022-08-03T06:21:14.391Z,19.50
2022-08-03T06:23:54.306Z,19.60
2022-08-03T06:26:24.833Z,19.70
2022-08-03T06:28:54.515Z,20.10
2022-08-03T06:31:23.973Z,20.00
2022-08-03T06:34:33.865Z,20.00
2022-08-03T06:36:41.806Z,20.20
2022-08-03T06:39:09.893Z,20.30
2022-08-03T06:41:38.386Z,20.40
2022-08-03T06:44:13.277Z,20.50
2022-08-03T06:46:42.298Z,20.70
2022-08-03T06:49:11.811Z,20.70
2022-08-03T06:52:03.226Z,20.70
2022-08-03T06:54:28.039Z,20.80
2022-08-03T06:56:56.183Z,21.20
2022-08-03T07:00:10.994Z,21.30
2022-08-03T07:02:12.498Z,21.50
2022-08-03T07:04:48.793Z,21.80
2022-08-03T07:07:17.409Z,21.90
2022-08-03T07:09:56.409Z,22.00
2022-08-03T07:12:26.220Z,22.20
2022-08-03T07:14:59.600Z,22.30
2022-08-03T07:17:29.203Z,22.40
2022-08-03T07:19:58.668Z,22.50
2022-08-03T07:22:27.021Z,22.60
2022-08-03T07:24:55.110Z,22.80
2022-08-03T07:27:23.679Z,22.90
2022-08-03T07:29:51.770Z,22.90
2022-08-03T07:32:19.889Z,23.10
2022-08-03T07:34:47.975Z,23.00
2022-08-03T07:37:17.490Z,23.20
2022-08-03T07:39:45.756Z,22.00
2022-08-03T07:42:14.112Z,23.50
2022-08-03T07:44:42.357Z,23.50
2022-08-03T07:47:10.449Z,23.70
2022-08-03T07:49:50.815Z,23.60
2022-08-03T07:52:37.855Z,23.80
2022-08-03T07:55:07.457Z,23.80
2022-08-03T07:57:36.284Z,24.00
2022-08-03T08:00:06.611Z,23.90
2022-08-03T08:02:34.669Z,24.00
2022-08-03T08:05:05.669Z,24.20
2022-08-03T08:07:35.624Z,24.60
2022-08-03T08:10:03.681Z,24.40
2022-08-03T08:12:31.788Z,24.50
2022-08-03T08:14:59.824Z,24.70
2022-08-03T08:17:28.224Z,24.60
2022-08-03T08:19:56.341Z,24.80
2022-08-03T08:22:30.051Z,24.80
2022-08-03T08:25:01.213Z,24.90
2022-08-03T08:28:31.637Z,25.00
2022-08-03T08:30:20.497Z,25.00
2022-08-03T08:32:48.705Z,25.20
2022-08-03T08:35:17.673Z,25.20
2022-08-03T08:37:50.696Z,25.40
2022-08-03T08:40:22.778Z,25.50
2022-08-03T08:42:58.481Z,25.70
2022-08-03T08:45:27.279Z,25.80
2022-08-03T08:48:00.417Z,25.90
2022-08-03T08:50:30.470Z,26.00
2022-08-03T08:53:03.237Z,26.30
2022-08-03T08:55:57.977Z,26.20
2022-08-03T08:58:23.352Z,26.30
2022-08-03T09:00:52.275Z,26.40
2022-08-03T09:03:29.070Z,26.40
2022-08-03T09:06:02.190Z,26.40
2022-08-03T09:08:30.933Z,26.50
2022-08-03T09:11:00.390Z,26.70
2022-08-03T09:13:29.185Z,26.60
2022-08-03T09:16:14.504Z,26.70
2022-08-03T09:18:43.261Z,26.80
2022-08-03T09:21:30.767Z,27.10
2022-08-03T09:24:03.818Z,27.20
2022-08-03T09:26:35.773Z,27.30
2022-08-03T09:29:11.262Z,27.30
2022-08-03T09:31:44.299Z,27.40
2022-08-03T09:34:14.459Z,27.50
2022-08-03T09:36:44.056Z,27.50
2022-08-03T09:39:14.219Z,27.60
2022-08-03T09:41:45.490Z,27.70
2022-08-03T09:44:24.453Z,27.70
2022-08-03T09:46:56.237Z,27.80
2022-08-03T09:49:25.416Z,27.70
2022-08-03T09:52:31.526Z,27.80
2022-08-03T09:54:51.694Z,27.90
2022-08-03T09:57:26.024Z,27.60
2022-08-03T10:00:04.690Z,27.50
2022-08-03T10:02:35.869Z,27.40
2022-08-03T10:05:04.101Z,27.50
2022-08-03T10:07:46.094Z,27.70
2022-08-03T10:10:28.871Z,28.00
2022-08-03T10:13:02.239Z,28.20
2022-08-03T10:16:23.069Z,28.40
2022-08-03T10:18:18.699Z,28.40
2022-08-03T10:20:50.996Z,28.50
2022-08-03T10:23:20.854Z,28.50
2022-08-03T10:25:53.751Z,28.50
2022-08-03T10:28:24.178Z,28.70
2022-08-03T10:30:54.526Z,28.80
2022-08-03T10:33:51.613Z,28.90
2022-08-03T10:36:14.739Z,28.80
2022-08-03T10:38:52.494Z,28.90
2022-08-03T10:41:22.281Z,29.00
2022-08-03T10:43:57.688Z,29.00
2022-08-03T10:46:27.442Z,29.10
2022-08-03T10:48:56.672Z,29.10
2022-08-03T10:51:25.421Z,29.10
2022-08-03T10:53:54.606Z,29.20
2022-08-03T10:57:13.673Z,29.20
2022-08-03T11:00:03.689Z,28.90
2022-08-03T11:03:07.303Z,28.90
2022-08-03T11:05:38.498Z,28.80
2022-08-03T11:08:35.845Z,28.80
2022-08-03T11:11:28.581Z,28.80
2022-08-03T11:14:03.475Z,28.90
2022-08-03T11:16:35.598Z,29.10
2022-08-03T11:19:05.832Z,29.20
2022-08-03T11:21:56.900Z,29.30
2022-08-03T11:24:58.433Z,29.40
2022-08-03T11:27:28.207Z,29.60
2022-08-03T11:29:58.390Z,29.60
2022-08-03T11:33:01.940Z,29.70
2022-08-03T11:35:31.909Z,29.80
2022-08-03T11:38:10.575Z,29.90
2022-08-03T11:40:41.965Z,30.00
2022-08-03T11:43:11.938Z,29.80
2022-08-03T11:45:40.166Z,29.70
2022-08-03T11:48:17.326Z,29.70
2022-08-03T11:50:46.299Z,29.50
2022-08-03T11:53:17.319Z,29.30
2022-08-03T11:55:48.851Z,29.30
2022-08-03T11:59:16.851Z,29.40
2022-08-03T12:01:12.264Z,29.70
2022-08-03T12:03:41.722Z,29.70
2022-08-03T12:06:11.595Z,29.30
2022-08-03T12:08:40.583Z,29.50
2022-08-03T12:11:10.788Z,29.90
2022-08-03T12:14:44.066Z,29.60
2022-08-03T12:16:32.037Z,29.90
2022-08-03T12:19:03.504Z,30.30
2022-08-03T12:21:31.861Z,30.50
2022-08-03T12:24:01.187Z,30.70
2022-08-03T12:26:30.600Z,30.80
2022-08-03T12:28:58.705Z,30.70
2022-08-03T12:31:26.835Z,30.50
2022-08-03T12:34:02.772Z,30.50
2022-08-03T12:36:32.144Z,30.60
2022-08-03T12:39:02.375Z,30.70
2022-08-03T12:41:34.246Z,30.70
2022-08-03T12:44:03.392Z,30.80
2022-08-03T12:46:34.548Z,30.80
2022-08-03T12:49:07.118Z,31.00
2022-08-03T12:51:37.337Z,31.10
2022-08-03T12:54:07.075Z,31.20
2022-08-03T12:56:36.227Z,31.20
2022-08-03T12:59:25.064Z,31.20
2022-08-03T13:02:00.952Z,31.30
2022-08-03T13:04:33.119Z,31.40
2022-08-03T13:07:03.413Z,31.50
2022-08-03T13:09:41.468Z,31.70
2022-08-03T13:12:11.107Z,32.00
2022-08-03T13:14:39.224Z,32.30
2022-08-03T13:17:07.913Z,32.50
2022-08-03T13:19:38.274Z,32.70
2022-08-03T13:22:13.380Z,32.80
2022-08-03T13:24:41.571Z,33.00
2022-08-03T13:28:01.730Z,32.50
2022-08-03T13:29:58.666Z,32.40
2022-08-03T13:32:26.683Z,32.50
2022-08-03T13:34:56.159Z,32.70
2022-08-03T13:37:24.348Z,33.10
2022-08-03T13:39:59.648Z,33.00
2022-08-03T13:42:30.721Z,33.40
2022-08-03T13:44:58.851Z,33.90
2022-08-03T13:47:27.405Z,34.30
2022-08-03T13:50:00.497Z,35.00
2022-08-03T13:52:31.744Z,35.80
2022-08-03T13:54:59.893Z,37.10
2022-08-03T13:58:02.560Z,37.50
2022-08-03T14:00:27.595Z,38.40
2022-08-03T14:03:03.811Z,39.50
2022-08-03T14:05:38.284Z,40.40
2022-08-03T14:08:07.074Z,41.20
2022-08-03T14:10:40.348Z,40.90
2022-08-03T14:13:09.059Z,41.20
2022-08-03T14:15:37.292Z,41.60
2022-08-03T14:18:06.906Z,41.70
2022-08-03T14:20:38.733Z,41.90
2022-08-03T14:23:17.440Z,42.30
2022-08-03T14:25:51.858Z,42.30
2022-08-03T14:28:22.448Z,41.70
2022-08-03T14:30:51.315Z,41.40
2022-08-03T14:33:19.494Z,41.90
2022-08-03T14:35:49.017Z,42.20
2022-08-03T14:38:17.664Z,42.80
2022-08-03T14:40:45.812Z,43.00
2022-08-03T14:43:14.042Z,42.60
2022-08-03T14:45:42.675Z,42.80
2022-08-03T14:50:32.768Z,42.90
2022-08-03T14:51:01.768Z,42.70
2022-08-03T14:53:30.154Z,42.70
2022-08-03T14:55:58.534Z,43.00
2022-08-03T14:58:27.120Z,42.90
2022-08-03T15:00:57.135Z,42.90
2022-08-03T15:03:26.056Z,42.90
2022-08-03T15:05:55.797Z,43.00
2022-08-03T15:08:26.936Z,43.20
2022-08-03T15:10:55.414Z,42.90
2022-08-03T15:13:25.265Z,43.00
2022-08-03T15:15:53.445Z,42.90
2022-08-03T15:18:21.493Z,43.00
2022-08-03T15:20:50.790Z,42.90
2022-08-03T15:23:19.583Z,43.50
2022-08-03T15:28:37.759Z,44.30
2022-08-03T15:31:06.489Z,43.40
2022-08-03T15:33:35.178Z,43.40
2022-08-03T15:36:03.983Z,43.30
2022-08-03T15:38:32.222Z,43.30
2022-08-03T15:41:01.749Z,42.60
2022-08-03T15:43:29.795Z,41.90
2022-08-03T15:46:27.670Z,41.80
2022-08-03T15:48:46.814Z,41.50
2022-08-03T15:51:15.019Z,41.40
2022-08-03T15:53:43.198Z,40.80
2022-08-03T15:56:18.148Z,41.00
2022-08-03T15:59:10.430Z,41.90
2022-08-03T16:01:35.010Z,42.10
2022-08-03T16:04:03.137Z,42.20
2022-08-03T16:06:35.244Z,40.90
2022-08-03T16:09:04.376Z,40.80
2022-08-03T16:11:34.235Z,39.30
2022-08-03T16:14:12.487Z,38.50
2022-08-03T16:16:50.331Z,38.40
2022-08-03T16:19:18.375Z,38.50
2022-08-03T16:21:48.686Z,38.60
2022-08-03T16:24:17.438Z,38.10
2022-08-03T16:26:49.456Z,37.70
2022-08-03T16:29:22.699Z,36.90
2022-08-03T16:31:52.543Z,36.50
2022-08-03T16:34:21.008Z,35.20
2022-08-03T16:36:49.072Z,34.60
2022-08-03T16:39:17.190Z,34.10
2022-08-03T16:41:53.600Z,33.80
2022-08-03T16:44:32.039Z,33.40
2022-08-03T16:47:00.746Z,33.10
2022-08-03T16:49:55.906Z,33.00
2022-08-03T16:52:18.070Z,33.00
2022-08-03T16:54:52.836Z,33.10
2022-08-03T16:57:56.040Z,33.10
2022-08-03T17:00:34.265Z,33.00
2022-08-03T17:03:04.414Z,32.80
2022-08-03T17:05:46.889Z,32.70
2022-08-03T17:08:15.659Z,32.70
2022-08-03T17:10:45.275Z,32.40
2022-08-03T17:13:21.867Z,32.30
2022-08-03T17:16:01.326Z,32.30
2022-08-03T17:18:34.920Z,32.20
2022-08-03T17:21:05.083Z,32.10
2022-08-03T17:23:40.325Z,32.00
2022-08-03T17:26:21.227Z,32.00
2022-08-03T17:28:57.558Z,31.90
2022-08-03T17:31:31.914Z,31.80
2022-08-03T17:34:16.485Z,31.70
2022-08-03T17:42:30.698Z,31.60
2022-08-03T17:45:03.954Z,31.50
2022-08-03T17:47:42.477Z,31.40
2022-08-03T17:50:24.192Z,31.30
2022-08-03T17:52:58.467Z,31.20
2022-08-03T17:55:55.282Z,31.10
2022-08-03T17:58:21.942Z,31.10
2022-08-03T18:01:57.861Z,31.00
2022-08-03T18:04:10.591Z,30.90
2022-08-03T18:06:56.330Z,30.80
2022-08-03T18:10:03.837Z,30.80
2022-08-03T18:12:24.294Z,30.70
2022-08-03T18:15:01.150Z,30.60
2022-08-03T18:17:55.130Z,30.50
2022-08-03T18:20:33.189Z,30.40
2022-08-03T18:23:04.981Z,30.30
2022-08-03T18:25:45.716Z,30.30
2022-08-03T18:28:19.337Z,30.10
2022-08-03T18:30:54.073Z,29.50
2022-08-03T18:34:19.729Z,28.90
2022-08-03T18:36:18.028Z,28.30
2022-08-03T18:38:48.060Z,27.60
2022-08-03T18:44:09.389Z,27.00
2022-08-03T18:47:08.110Z,26.80
2022-08-03T18:49:58.623Z,26.70
2022-08-03T18:52:32.644Z,26.70
2022-08-03T18:55:21.521Z,26.50
2022-08-03T18:58:15.749Z,26.20
2022-08-03T19:00:56.613Z,26.00
2022-08-03T19:03:41.269Z,25.80
2022-08-03T19:06:20.033Z,25.70
2022-08-03T19:08:55.593Z,25.50
2022-08-03T19:14:18.936Z,25.40
2022-08-03T19:16:49.721Z,25.20
2022-08-03T19:19:21.322Z,25.10
2022-08-03T19:21:53.220Z,24.90
2022-08-03T19:27:15.875Z,24.60
2022-08-03T19:29:58.031Z,24.50
2022-08-03T19:32:29.927Z,24.50
2022-08-03T19:34:59.396Z,24.50
2022-08-03T19:37:38.526Z,24.40
2022-08-03T19:40:12.370Z,24.40
2022-08-03T19:42:45.397Z,24.30
2022-08-03T19:45:22.355Z,24.20
2022-08-03T19:48:13.887Z,24.00
2022-08-03T19:50:44.434Z,23.90
2022-08-03T19:53:14.278Z,23.80
2022-08-03T19:55:48.789Z,23.80
2022-08-03T19:58:28.573Z,23.80
2022-08-03T20:00:57.152Z,23.70
2022-08-03T20:03:43.000Z,23.70
2022-08-03T20:06:13.030Z,23.60
2022-08-03T20:08:45.411Z,23.40
2022-08-03T20:11:28.778Z,23.30
2022-08-03T20:13:59.477Z,23.10
2022-08-03T20:16:27.816Z,23.10
2022-08-03T20:18:56.032Z,23.00
2022-08-03T20:21:26.343Z,22.90
2022-08-03T20:24:03.427Z,22.20
2022-08-03T20:26:54.387Z,22.80
2022-08-03T20:30:06.131Z,22.70
2022-08-03T20:32:19.356Z,22.50
2022-08-03T20:34:53.327Z,22.40
2022-08-03T20:37:21.624Z,22.40
2022-08-03T20:39:50.010Z,22.50
2022-08-03T20:42:21.754Z,22.40
2022-08-03T20:45:04.683Z,22.50
2022-08-03T20:47:35.958Z,22.50
2022-08-03T20:50:07.600Z,22.40
2022-08-03T20:52:49.271Z,22.30
2022-08-03T20:55:20.289Z,20.80
2022-08-03T20:58:10.341Z,22.10
2022-08-03T21:00:38.543Z,22.00
2022-08-03T21:03:06.785Z,21.90
2022-08-03T21:05:51.502Z,21.80
2022-08-03T21:08:27.035Z,21.70
2022-08-03T21:10:57.450Z,21.60
2022-08-03T21:12:58.869Z,27.20
2022-08-03T21:13:09.931Z,25.50
2022-08-03T21:13:10.803Z,24.70
2022-08-03T21:13:36.852Z,21.50
2022-08-03T21:16:13.974Z,21.50
2022-08-03T21:18:47.428Z,21.40
2022-08-03T21:21:18.648Z,21.50
2022-08-03T21:23:50.834Z,21.50
2022-08-03T21:26:20.501Z,21.60
2022-08-03T21:28:51.323Z,21.70
2022-08-03T21:31:24.884Z,21.70
2022-08-03T21:33:56.435Z,21.50
2022-08-03T21:36:25.356Z,21.30
2022-08-03T21:38:56.637Z,21.20
2022-08-03T21:41:26.191Z,21.10
2022-08-03T21:43:55.811Z,21.00
2022-08-03T21:46:24.492Z,20.90
2022-08-03T21:50:07.971Z,20.80
2022-08-03T21:51:49.797Z,20.80
2022-08-03T21:54:20.066Z,20.70
2022-08-03T21:56:52.042Z,20.60
2022-08-03T21:59:24.078Z,20.60
2022-08-03T22:01:55.384Z,20.70
2022-08-03T22:04:50.692Z,20.70
2022-08-03T22:07:16.099Z,20.60
2022-08-03T22:09:50.168Z,20.50
2022-08-03T22:12:22.130Z,20.40
2022-08-03T22:15:01.290Z,20.30
2022-08-03T22:17:54.983Z,20.20
2022-08-03T22:20:20.627Z,20.10
2022-08-03T22:22:55.236Z,20.10
2022-08-03T22:25:28.658Z,20.10
2022-08-03T22:27:57.897Z,20.20
2022-08-03T22:30:27.671Z,20.20
2022-08-03T22:32:57.562Z,20.20
2022-08-03T22:35:28.095Z,20.40
2022-08-03T22:37:58.444Z,20.20
2022-08-03T22:40:28.012Z,20.30
2022-08-03T22:42:56.650Z,20.30
2022-08-03T22:46:07.155Z,20.10
2022-08-03T22:48:17.729Z,19.90
2022-08-03T22:50:46.305Z,19.80
2022-08-03T22:53:18.479Z,19.80
2022-08-03T22:55:47.150Z,19.80
2022-08-03T22:58:16.584Z,19.80
2022-08-03T23:00:53.602Z,19.80
2022-08-03T23:03:25.942Z,19.90
2022-08-03T23:06:15.628Z,19.90
2022-08-03T23:08:45.553Z,19.90
2022-08-03T23:11:14.793Z,19.70
2022-08-03T23:13:43.509Z,19.60
2022-08-03T23:16:11.850Z,19.50
2022-08-03T23:18:43.479Z,19.50
2022-08-03T23:21:12.804Z,19.50
2022-08-03T23:23:44.714Z,19.40
2022-08-03T23:26:14.251Z,19.60
2022-08-03T23:28:46.156Z,19.70
2022-08-03T23:31:15.843Z,19.70
2022-08-03T23:33:46.610Z,19.90
2022-08-03T23:36:30.704Z,19.60
2022-08-03T23:39:03.091Z,19.70
2022-08-03T23:41:31.826Z,19.50
2022-08-03T23:44:01.972Z,19.50
2022-08-03T23:46:31.930Z,19.40
2022-08-03T23:49:01.607Z,19.80
2022-08-03T23:51:40.089Z,19.30
2022-08-03T23:54:17.505Z,19.20
2022-08-03T23:56:55.103Z,18.90
2022-08-03T23:59:33.276Z,19.20
